sensor_id;sensor_type;location;lat;lon;timestamp;P1;durP1;ratioP1;P2;durP2;ratioP2
17586;SDS011;8912;52.336;17.172;2022-12-29T00:00:26;10.00;;;6.37;;
17586;SDS011;8912;52.336;17.172;2022-12-29T00:02:55;8.33;;;6.23;;
17586;SDS011;8912;52.336;17.172;2022-12-29T00:05:26;11.40;;;5.97;;
17586;SDS011;8912;52.336;17.172;2022-12-29T00:07:55;9.40;;;6.30;;
17586;SDS011;8912;52.336;17.172;2022-12-29T00:10:24;9.67;;;5.63;;
17586;SDS011;8912;52.336;17.172;2022-12-29T00:12:53;9.70;;;5.67;;
17586;SDS011;8912;52.336;17.172;2022-12-29T00:15:54;8.73;;;5.40;;
17586;SDS011;8912;52.336;17.172;2022-12-29T00:18:23;6.43;;;5.13;;
17586;SDS011;8912;52.336;17.172;2022-12-29T00:20:56;9.50;;;5.10;;
17586;SDS011;8912;52.336;17.172;2022-12-29T00:23:50;8.13;;;5.07;;
17586;SDS011;8912;52.336;17.172;2022-12-29T00:26:36;6.13;;;4.63;;
17586;SDS011;8912;52.336;17.172;2022-12-29T00:29:23;8.77;;;5.37;;
17586;SDS011;8912;52.336;17.172;2022-12-29T00:32:09;8.53;;;5.43;;
17586;SDS011;8912;52.336;17.172;2022-12-29T00:34:55;8.50;;;4.80;;
17586;SDS011;8912;52.336;17.172;2022-12-29T00:37:39;7.33;;;4.67;;
17586;SDS011;8912;52.336;17.172;2022-12-29T00:40:28;8.37;;;6.13;;
17586;SDS011;8912;52.336;17.172;2022-12-29T00:43:28;9.93;;;6.30;;
17586;SDS011;8912;52.336;17.172;2022-12-29T00:46:14;10.07;;;6.07;;
17586;SDS011;8912;52.336;17.172;2022-12-29T00:48:46;9.17;;;4.93;;
17586;SDS011;8912;52.336;17.172;2022-12-29T00:51:32;6.43;;;5.07;;
17586;SDS011;8912;52.336;17.172;2022-12-29T00:54:03;5.77;;;4.60;;
17586;SDS011;8912;52.336;17.172;2022-12-29T00:56:33;7.77;;;4.77;;
17586;SDS011;8912;52.336;17.172;2022-12-29T00:59:02;7.13;;;4.37;;
17586;SDS011;8912;52.336;17.172;2022-12-29T01:01:33;7.83;;;4.73;;
17586;SDS011;8912;52.336;17.172;2022-12-29T01:04:03;5.37;;;4.27;;
17586;SDS011;8912;52.336;17.172;2022-12-29T01:06:33;8.50;;;4.87;;
17586;SDS011;8912;52.336;17.172;2022-12-29T01:09:06;7.40;;;4.67;;
17586;SDS011;8912;52.336;17.172;2022-12-29T01:11:52;7.60;;;4.90;;
17586;SDS011;8912;52.336;17.172;2022-12-29T01:14:22;6.93;;;4.60;;
17586;SDS011;8912;52.336;17.172;2022-12-29T01:16:51;7.03;;;5.10;;
17586;SDS011;8912;52.336;17.172;2022-12-29T01:19:21;7.50;;;4.90;;
17586;SDS011;8912;52.336;17.172;2022-12-29T01:21:50;6.60;;;5.10;;
17586;SDS011;8912;52.336;17.172;2022-12-29T01:24:21;6.80;;;5.47;;
17586;SDS011;8912;52.336;17.172;2022-12-29T01:26:50;7.83;;;5.53;;
17586;SDS011;8912;52.336;17.172;2022-12-29T01:29:18;8.40;;;6.03;;
17586;SDS011;8912;52.336;17.172;2022-12-29T01:31:47;7.67;;;5.93;;
17586;SDS011;8912;52.336;17.172;2022-12-29T01:34:17;7.93;;;5.63;;
17586;SDS011;8912;52.336;17.172;2022-12-29T01:36:46;7.87;;;5.97;;
17586;SDS011;8912;52.336;17.172;2022-12-29T01:39:15;8.53;;;6.27;;
17586;SDS011;8912;52.336;17.172;2022-12-29T01:41:45;8.30;;;6.63;;
17586;SDS011;8912;52.336;17.172;2022-12-29T01:47:18;8.03;;;6.20;;
17586;SDS011;8912;52.336;17.172;2022-12-29T01:49:59;6.67;;;5.70;;
17586;SDS011;8912;52.336;17.172;2022-12-29T01:52:33;9.07;;;6.00;;
17586;SDS011;8912;52.336;17.172;2022-12-29T01:55:04;8.40;;;5.60;;
17586;SDS011;8912;52.336;17.172;2022-12-29T01:57:36;8.20;;;5.70;;
17586;SDS011;8912;52.336;17.172;2022-12-29T02:00:09;6.33;;;5.33;;
17586;SDS011;8912;52.336;17.172;2022-12-29T02:02:40;9.10;;;5.70;;
17586;SDS011;8912;52.336;17.172;2022-12-29T02:05:14;9.23;;;5.47;;
17586;SDS011;8912;52.336;17.172;2022-12-29T02:07:48;6.13;;;5.27;;
17586;SDS011;8912;52.336;17.172;2022-12-29T02:10:20;6.90;;;5.07;;
17586;SDS011;8912;52.336;17.172;2022-12-29T02:12:52;6.83;;;4.77;;
17586;SDS011;8912;52.336;17.172;2022-12-29T02:15:24;8.83;;;4.50;;
17586;SDS011;8912;52.336;17.172;2022-12-29T02:18:05;4.23;;;3.83;;
17586;SDS011;8912;52.336;17.172;2022-12-29T02:24:11;4.80;;;4.07;;
17586;SDS011;8912;52.336;17.172;2022-12-29T02:27:04;5.77;;;3.50;;
17586;SDS011;8912;52.336;17.172;2022-12-29T02:30:05;5.93;;;3.93;;
17586;SDS011;8912;52.336;17.172;2022-12-29T02:32:40;5.30;;;3.93;;
17586;SDS011;8912;52.336;17.172;2022-12-29T02:35:19;6.37;;;4.00;;
17586;SDS011;8912;52.336;17.172;2022-12-29T02:37:56;5.90;;;3.83;;
17586;SDS011;8912;52.336;17.172;2022-12-29T02:40:33;5.50;;;3.50;;
17586;SDS011;8912;52.336;17.172;2022-12-29T02:43:12;7.97;;;3.80;;
17586;SDS011;8912;52.336;17.172;2022-12-29T02:45:51;5.10;;;3.47;;
17586;SDS011;8912;52.336;17.172;2022-12-29T02:48:26;6.10;;;3.87;;
17586;SDS011;8912;52.336;17.172;2022-12-29T02:50:59;4.53;;;3.70;;
17586;SDS011;8912;52.336;17.172;2022-12-29T02:53:30;6.40;;;3.40;;
17586;SDS011;8912;52.336;17.172;2022-12-29T02:56:19;6.40;;;3.20;;
17586;SDS011;8912;52.336;17.172;2022-12-29T02:58:48;5.03;;;3.70;;
17586;SDS011;8912;52.336;17.172;2022-12-29T03:01:21;4.90;;;3.10;;
17586;SDS011;8912;52.336;17.172;2022-12-29T03:04:03;6.03;;;3.43;;
17586;SDS011;8912;52.336;17.172;2022-12-29T03:06:50;5.40;;;3.23;;
17586;SDS011;8912;52.336;17.172;2022-12-29T03:09:26;4.87;;;3.20;;
17586;SDS011;8912;52.336;17.172;2022-12-29T03:12:13;5.00;;;3.23;;
17586;SDS011;8912;52.336;17.172;2022-12-29T03:15:07;5.90;;;3.27;;
17586;SDS011;8912;52.336;17.172;2022-12-29T03:17:58;4.23;;;2.97;;
17586;SDS011;8912;52.336;17.172;2022-12-29T03:20:36;4.77;;;2.80;;
17586;SDS011;8912;52.336;17.172;2022-12-29T03:23:11;4.17;;;3.00;;
17586;SDS011;8912;52.336;17.172;2022-12-29T03:25:43;4.47;;;3.07;;
17586;SDS011;8912;52.336;17.172;2022-12-29T03:28:18;8.30;;;4.57;;
17586;SDS011;8912;52.336;17.172;2022-12-29T03:30:50;4.17;;;3.00;;
17586;SDS011;8912;52.336;17.172;2022-12-29T03:33:20;4.90;;;2.97;;
17586;SDS011;8912;52.336;17.172;2022-12-29T03:35:53;4.60;;;2.60;;
17586;SDS011;8912;52.336;17.172;2022-12-29T03:38:30;4.03;;;3.00;;
17586;SDS011;8912;52.336;17.172;2022-12-29T03:41:04;5.50;;;3.57;;
17586;SDS011;8912;52.336;17.172;2022-12-29T03:43:39;4.57;;;2.80;;
17586;SDS011;8912;52.336;17.172;2022-12-29T03:46:09;5.33;;;2.80;;
17586;SDS011;8912;52.336;17.172;2022-12-29T03:48:40;6.13;;;3.30;;
17586;SDS011;8912;52.336;17.172;2022-12-29T03:51:11;4.33;;;3.30;;
17586;SDS011;8912;52.336;17.172;2022-12-29T03:53:40;4.50;;;2.70;;
17586;SDS011;8912;52.336;17.172;2022-12-29T03:56:09;3.50;;;2.93;;
17586;SDS011;8912;52.336;17.172;2022-12-29T03:58:38;5.30;;;3.13;;
17586;SDS011;8912;52.336;17.172;2022-12-29T04:01:10;5.30;;;3.60;;
17586;SDS011;8912;52.336;17.172;2022-12-29T04:03:40;4.70;;;3.37;;
17586;SDS011;8912;52.336;17.172;2022-12-29T04:06:11;4.77;;;3.40;;
17586;SDS011;8912;52.336;17.172;2022-12-29T04:08:54;3.73;;;3.27;;
17586;SDS011;8912;52.336;17.172;2022-12-29T04:11:23;5.70;;;3.33;;
17586;SDS011;8912;52.336;17.172;2022-12-29T04:13:59;4.27;;;3.30;;
17586;SDS011;8912;52.336;17.172;2022-12-29T04:16:30;6.53;;;3.83;;
17586;SDS011;8912;52.336;17.172;2022-12-29T04:19:03;3.43;;;3.10;;
17586;SDS011;8912;52.336;17.172;2022-12-29T04:21:36;4.20;;;2.97;;
17586;SDS011;8912;52.336;17.172;2022-12-29T04:24:06;4.67;;;3.20;;
17586;SDS011;8912;52.336;17.172;2022-12-29T04:26:39;4.27;;;3.27;;
17586;SDS011;8912;52.336;17.172;2022-12-29T04:29:32;3.63;;;2.93;;
17586;SDS011;8912;52.336;17.172;2022-12-29T04:32:34;3.60;;;3.10;;
17586;SDS011;8912;52.336;17.172;2022-12-29T04:35:03;4.13;;;3.33;;
17586;SDS011;8912;52.336;17.172;2022-12-29T04:37:35;4.83;;;3.10;;
17586;SDS011;8912;52.336;17.172;2022-12-29T04:40:04;5.07;;;3.40;;
17586;SDS011;8912;52.336;17.172;2022-12-29T04:42:34;3.57;;;2.80;;
17586;SDS011;8912;52.336;17.172;2022-12-29T04:45:03;4.03;;;2.53;;
17586;SDS011;8912;52.336;17.172;2022-12-29T04:47:37;4.70;;;3.17;;
17586;SDS011;8912;52.336;17.172;2022-12-29T04:50:25;3.40;;;2.47;;
17586;SDS011;8912;52.336;17.172;2022-12-29T04:53:06;3.53;;;2.60;;
17586;SDS011;8912;52.336;17.172;2022-12-29T04:55:36;5.77;;;2.93;;
17586;SDS011;8912;52.336;17.172;2022-12-29T04:58:07;4.53;;;2.90;;
17586;SDS011;8912;52.336;17.172;2022-12-29T05:00:36;3.30;;;2.67;;
17586;SDS011;8912;52.336;17.172;2022-12-29T05:03:05;3.87;;;2.77;;
17586;SDS011;8912;52.336;17.172;2022-12-29T05:05:37;3.63;;;3.00;;
17586;SDS011;8912;52.336;17.172;2022-12-29T05:08:08;5.23;;;2.33;;
17586;SDS011;8912;52.336;17.172;2022-12-29T05:10:38;3.10;;;2.27;;
17586;SDS011;8912;52.336;17.172;2022-12-29T05:13:11;3.23;;;2.47;;
17586;SDS011;8912;52.336;17.172;2022-12-29T05:15:45;4.27;;;2.70;;
17586;SDS011;8912;52.336;17.172;2022-12-29T05:18:17;3.90;;;2.40;;
17586;SDS011;8912;52.336;17.172;2022-12-29T05:20:48;5.03;;;2.10;;
17586;SDS011;8912;52.336;17.172;2022-12-29T05:23:20;2.63;;;1.90;;
17586;SDS011;8912;52.336;17.172;2022-12-29T05:26:00;3.63;;;2.10;;
17586;SDS011;8912;52.336;17.172;2022-12-29T05:29:01;4.30;;;1.83;;
17586;SDS011;8912;52.336;17.172;2022-12-29T05:31:32;3.73;;;2.27;;
17586;SDS011;8912;52.336;17.172;2022-12-29T05:34:04;2.83;;;2.13;;
17586;SDS011;8912;52.336;17.172;2022-12-29T05:36:33;6.17;;;2.40;;
17586;SDS011;8912;52.336;17.172;2022-12-29T05:39:08;3.10;;;2.30;;
17586;SDS011;8912;52.336;17.172;2022-12-29T05:41:37;3.03;;;2.20;;
17586;SDS011;8912;52.336;17.172;2022-12-29T05:44:15;2.63;;;2.00;;
17586;SDS011;8912;52.336;17.172;2022-12-29T05:47:04;2.90;;;2.20;;
17586;SDS011;8912;52.336;17.172;2022-12-29T05:49:48;3.50;;;2.33;;
17586;SDS011;8912;52.336;17.172;2022-12-29T05:52:30;2.83;;;2.13;;
17586;SDS011;8912;52.336;17.172;2022-12-29T05:55:01;3.23;;;2.07;;
17586;SDS011;8912;52.336;17.172;2022-12-29T05:57:31;4.80;;;2.17;;
17586;SDS011;8912;52.336;17.172;2022-12-29T06:00:08;3.70;;;1.93;;
17586;SDS011;8912;52.336;17.172;2022-12-29T06:02:40;4.93;;;2.10;;
17586;SDS011;8912;52.336;17.172;2022-12-29T06:05:10;3.33;;;2.00;;
17586;SDS011;8912;52.336;17.172;2022-12-29T06:07:39;3.87;;;2.20;;
17586;SDS011;8912;52.336;17.172;2022-12-29T06:10:09;2.80;;;2.20;;
17586;SDS011;8912;52.336;17.172;2022-12-29T06:12:45;2.43;;;2.20;;
17586;SDS011;8912;52.336;17.172;2022-12-29T06:15:14;2.30;;;1.87;;
17586;SDS011;8912;52.336;17.172;2022-12-29T06:17:44;4.80;;;2.23;;
17586;SDS011;8912;52.336;17.172;2022-12-29T06:20:14;2.73;;;2.03;;
17586;SDS011;8912;52.336;17.172;2022-12-29T06:22:43;4.17;;;2.10;;
17586;SDS011;8912;52.336;17.172;2022-12-29T06:25:15;4.70;;;2.23;;
17586;SDS011;8912;52.336;17.172;2022-12-29T06:27:44;4.53;;;2.30;;
17586;SDS011;8912;52.336;17.172;2022-12-29T06:30:13;4.13;;;2.00;;
17586;SDS011;8912;52.336;17.172;2022-12-29T06:32:44;3.93;;;2.50;;
17586;SDS011;8912;52.336;17.172;2022-12-29T06:35:13;4.13;;;2.90;;
17586;SDS011;8912;52.336;17.172;2022-12-29T06:37:49;3.10;;;2.50;;
17586;SDS011;8912;52.336;17.172;2022-12-29T06:40:20;5.17;;;3.03;;
17586;SDS011;8912;52.336;17.172;2022-12-29T06:43:22;2.70;;;2.10;;
17586;SDS011;8912;52.336;17.172;2022-12-29T06:46:11;3.83;;;2.80;;
17586;SDS011;8912;52.336;17.172;2022-12-29T06:48:40;3.10;;;2.27;;
17586;SDS011;8912;52.336;17.172;2022-12-29T06:51:10;3.47;;;2.10;;
17586;SDS011;8912;52.336;17.172;2022-12-29T06:53:39;5.17;;;2.90;;
17586;SDS011;8912;52.336;17.172;2022-12-29T06:56:10;4.27;;;2.77;;
17586;SDS011;8912;52.336;17.172;2022-12-29T06:58:38;3.17;;;2.20;;
17586;SDS011;8912;52.336;17.172;2022-12-29T07:01:07;3.93;;;2.40;;
17586;SDS011;8912;52.336;17.172;2022-12-29T07:03:36;3.13;;;2.63;;
17586;SDS011;8912;52.336;17.172;2022-12-29T07:06:05;3.00;;;2.37;;
17586;SDS011;8912;52.336;17.172;2022-12-29T07:08:34;2.83;;;2.33;;
17586;SDS011;8912;52.336;17.172;2022-12-29T07:11:04;3.47;;;2.40;;
17586;SDS011;8912;52.336;17.172;2022-12-29T07:13:34;4.27;;;2.63;;
17586;SDS011;8912;52.336;17.172;2022-12-29T07:16:06;4.57;;;3.13;;
17586;SDS011;8912;52.336;17.172;2022-12-29T07:18:36;4.67;;;2.80;;
17586;SDS011;8912;52.336;17.172;2022-12-29T07:21:05;6.80;;;2.63;;
17586;SDS011;8912;52.336;17.172;2022-12-29T07:23:34;2.70;;;2.30;;
17586;SDS011;8912;52.336;17.172;2022-12-29T07:26:04;3.57;;;2.47;;
17586;SDS011;8912;52.336;17.172;2022-12-29T07:28:37;3.87;;;2.60;;
17586;SDS011;8912;52.336;17.172;2022-12-29T07:31:06;4.03;;;2.90;;
17586;SDS011;8912;52.336;17.172;2022-12-29T07:33:40;5.03;;;2.97;;
17586;SDS011;8912;52.336;17.172;2022-12-29T07:36:10;3.50;;;2.97;;
17586;SDS011;8912;52.336;17.172;2022-12-29T07:38:38;3.53;;;2.50;;
17586;SDS011;8912;52.336;17.172;2022-12-29T07:41:08;5.80;;;3.57;;
17586;SDS011;8912;52.336;17.172;2022-12-29T07:43:38;5.07;;;3.40;;
17586;SDS011;8912;52.336;17.172;2022-12-29T07:46:33;5.90;;;2.90;;
17586;SDS011;8912;52.336;17.172;2022-12-29T07:49:22;4.33;;;3.23;;
17586;SDS011;8912;52.336;17.172;2022-12-29T07:51:51;13.27;;;9.27;;
17586;SDS011;8912;52.336;17.172;2022-12-29T07:54:20;10.10;;;6.40;;
17586;SDS011;8912;52.336;17.172;2022-12-29T07:56:50;7.03;;;4.80;;
17586;SDS011;8912;52.336;17.172;2022-12-29T07:59:20;5.07;;;3.53;;
17586;SDS011;8912;52.336;17.172;2022-12-29T08:01:49;4.90;;;3.60;;
17586;SDS011;8912;52.336;17.172;2022-12-29T08:04:18;7.23;;;3.70;;
17586;SDS011;8912;52.336;17.172;2022-12-29T08:06:47;8.27;;;5.47;;
17586;SDS011;8912;52.336;17.172;2022-12-29T08:09:16;9.67;;;7.27;;
17586;SDS011;8912;52.336;17.172;2022-12-29T08:11:50;18.37;;;12.33;;
17586;SDS011;8912;52.336;17.172;2022-12-29T08:14:20;7.17;;;5.60;;
17586;SDS011;8912;52.336;17.172;2022-12-29T08:16:49;5.97;;;4.50;;
17586;SDS011;8912;52.336;17.172;2022-12-29T08:19:18;7.43;;;3.83;;
17586;SDS011;8912;52.336;17.172;2022-12-29T08:21:48;10.03;;;6.13;;
17586;SDS011;8912;52.336;17.172;2022-12-29T08:24:17;7.77;;;5.43;;
17586;SDS011;8912;52.336;17.172;2022-12-29T08:26:46;5.30;;;3.53;;
17586;SDS011;8912;52.336;17.172;2022-12-29T08:29:15;7.03;;;4.13;;
17586;SDS011;8912;52.336;17.172;2022-12-29T08:31:45;4.63;;;2.93;;
17586;SDS011;8912;52.336;17.172;2022-12-29T08:34:14;5.13;;;2.73;;
17586;SDS011;8912;52.336;17.172;2022-12-29T08:36:43;4.63;;;3.50;;
17586;SDS011;8912;52.336;17.172;2022-12-29T08:39:11;5.10;;;2.60;;
17586;SDS011;8912;52.336;17.172;2022-12-29T08:41:44;7.03;;;3.10;;
17586;SDS011;8912;52.336;17.172;2022-12-29T08:44:13;3.90;;;2.70;;
17586;SDS011;8912;52.336;17.172;2022-12-29T08:46:42;4.13;;;2.60;;
17586;SDS011;8912;52.336;17.172;2022-12-29T08:49:13;4.10;;;2.70;;
17586;SDS011;8912;52.336;17.172;2022-12-29T08:51:42;3.87;;;3.00;;
17586;SDS011;8912;52.336;17.172;2022-12-29T08:54:11;5.07;;;3.67;;
17586;SDS011;8912;52.336;17.172;2022-12-29T08:56:40;4.87;;;3.10;;
17586;SDS011;8912;52.336;17.172;2022-12-29T08:59:09;4.03;;;2.80;;
17586;SDS011;8912;52.336;17.172;2022-12-29T09:01:39;5.07;;;2.83;;
17586;SDS011;8912;52.336;17.172;2022-12-29T09:04:08;4.77;;;2.57;;
17586;SDS011;8912;52.336;17.172;2022-12-29T09:06:44;4.37;;;3.33;;
17586;SDS011;8912;52.336;17.172;2022-12-29T09:09:13;4.20;;;3.50;;
17586;SDS011;8912;52.336;17.172;2022-12-29T09:11:42;5.23;;;3.57;;
17586;SDS011;8912;52.336;17.172;2022-12-29T09:14:11;8.20;;;4.43;;
17586;SDS011;8912;52.336;17.172;2022-12-29T09:16:41;5.00;;;3.63;;
17586;SDS011;8912;52.336;17.172;2022-12-29T09:19:27;4.40;;;2.90;;
17586;SDS011;8912;52.336;17.172;2022-12-29T09:21:57;4.53;;;3.10;;
17586;SDS011;8912;52.336;17.172;2022-12-29T09:24:26;4.63;;;3.20;;
17586;SDS011;8912;52.336;17.172;2022-12-29T09:26:55;5.50;;;3.63;;
17586;SDS011;8912;52.336;17.172;2022-12-29T09:29:24;6.30;;;4.00;;
17586;SDS011;8912;52.336;17.172;2022-12-29T09:31:56;6.33;;;3.33;;
17586;SDS011;8912;52.336;17.172;2022-12-29T09:34:30;5.13;;;3.70;;
17586;SDS011;8912;52.336;17.172;2022-12-29T09:37:01;7.40;;;3.53;;
17586;SDS011;8912;52.336;17.172;2022-12-29T09:39:29;3.93;;;3.03;;
17586;SDS011;8912;52.336;17.172;2022-12-29T09:42:00;6.63;;;3.30;;
17586;SDS011;8912;52.336;17.172;2022-12-29T09:44:38;4.73;;;3.37;;
17586;SDS011;8912;52.336;17.172;2022-12-29T09:47:16;4.90;;;3.70;;
17586;SDS011;8912;52.336;17.172;2022-12-29T09:49:47;8.33;;;4.33;;
17586;SDS011;8912;52.336;17.172;2022-12-29T09:52:22;6.00;;;4.50;;
17586;SDS011;8912;52.336;17.172;2022-12-29T09:54:56;5.10;;;3.70;;
17586;SDS011;8912;52.336;17.172;2022-12-29T09:57:40;4.97;;;3.20;;
17586;SDS011;8912;52.336;17.172;2022-12-29T10:00:14;4.17;;;3.23;;
17586;SDS011;8912;52.336;17.172;2022-12-29T10:02:46;4.10;;;3.27;;
17586;SDS011;8912;52.336;17.172;2022-12-29T10:05:23;4.17;;;3.23;;
17586;SDS011;8912;52.336;17.172;2022-12-29T10:08:05;5.63;;;3.23;;
17586;SDS011;8912;52.336;17.172;2022-12-29T10:10:48;6.67;;;3.90;;
17586;SDS011;8912;52.336;17.172;2022-12-29T10:13:26;5.13;;;3.57;;
17586;SDS011;8912;52.336;17.172;2022-12-29T10:16:05;5.20;;;3.90;;
17586;SDS011;8912;52.336;17.172;2022-12-29T10:18:55;7.37;;;4.30;;
17586;SDS011;8912;52.336;17.172;2022-12-29T10:21:39;5.23;;;3.90;;
17586;SDS011;8912;52.336;17.172;2022-12-29T10:24:20;4.97;;;3.43;;
17586;SDS011;8912;52.336;17.172;2022-12-29T10:26:51;7.43;;;3.90;;
17586;SDS011;8912;52.336;17.172;2022-12-29T10:29:20;5.67;;;3.60;;
17586;SDS011;8912;52.336;17.172;2022-12-29T10:31:54;6.17;;;4.03;;
17586;SDS011;8912;52.336;17.172;2022-12-29T10:34:27;4.03;;;3.13;;
17586;SDS011;8912;52.336;17.172;2022-12-29T10:37:01;4.43;;;3.13;;
17586;SDS011;8912;52.336;17.172;2022-12-29T10:39:36;4.50;;;3.50;;
17586;SDS011;8912;52.336;17.172;2022-12-29T10:42:13;4.10;;;3.13;;
17586;SDS011;8912;52.336;17.172;2022-12-29T10:44:47;4.77;;;3.17;;
17586;SDS011;8912;52.336;17.172;2022-12-29T10:47:18;5.53;;;3.17;;
17586;SDS011;8912;52.336;17.172;2022-12-29T10:49:50;3.73;;;2.57;;
17586;SDS011;8912;52.336;17.172;2022-12-29T10:52:20;7.83;;;4.60;;
17586;SDS011;8912;52.336;17.172;2022-12-29T10:54:53;5.63;;;2.70;;
17586;SDS011;8912;52.336;17.172;2022-12-29T10:57:26;3.00;;;2.43;;
17586;SDS011;8912;52.336;17.172;2022-12-29T10:59:59;3.23;;;2.30;;
17586;SDS011;8912;52.336;17.172;2022-12-29T11:05:23;3.50;;;2.80;;
17586;SDS011;8912;52.336;17.172;2022-12-29T11:07:59;3.40;;;2.50;;
17586;SDS011;8912;52.336;17.172;2022-12-29T11:10:36;3.63;;;2.60;;
17586;SDS011;8912;52.336;17.172;2022-12-29T11:13:12;4.40;;;3.50;;
17586;SDS011;8912;52.336;17.172;2022-12-29T11:15:44;5.43;;;3.80;;
17586;SDS011;8912;52.336;17.172;2022-12-29T11:18:18;3.97;;;2.87;;
17586;SDS011;8912;52.336;17.172;2022-12-29T11:20:52;6.17;;;4.13;;
17586;SDS011;8912;52.336;17.172;2022-12-29T11:23:25;8.67;;;3.33;;
17586;SDS011;8912;52.336;17.172;2022-12-29T11:26:08;5.37;;;3.17;;
17586;SDS011;8912;52.336;17.172;2022-12-29T11:28:42;6.53;;;3.47;;
17586;SDS011;8912;52.336;17.172;2022-12-29T11:31:15;4.33;;;3.10;;
17586;SDS011;8912;52.336;17.172;2022-12-29T11:33:47;2.90;;;2.50;;
17586;SDS011;8912;52.336;17.172;2022-12-29T11:36:16;3.70;;;2.90;;
17586;SDS011;8912;52.336;17.172;2022-12-29T11:38:48;5.33;;;3.13;;
17586;SDS011;8912;52.336;17.172;2022-12-29T11:41:21;3.60;;;2.27;;
17586;SDS011;8912;52.336;17.172;2022-12-29T11:43:53;5.33;;;2.90;;
17586;SDS011;8912;52.336;17.172;2022-12-29T11:46:25;4.17;;;3.13;;
17586;SDS011;8912;52.336;17.172;2022-12-29T11:48:57;7.00;;;4.00;;
17586;SDS011;8912;52.336;17.172;2022-12-29T11:51:28;3.87;;;2.73;;
17586;SDS011;8912;52.336;17.172;2022-12-29T11:53:59;3.57;;;2.50;;
17586;SDS011;8912;52.336;17.172;2022-12-29T11:56:34;4.77;;;2.80;;
17586;SDS011;8912;52.336;17.172;2022-12-29T12:02:12;5.47;;;3.10;;
17586;SDS011;8912;52.336;17.172;2022-12-29T12:05:11;4.43;;;2.30;;
17586;SDS011;8912;52.336;17.172;2022-12-29T12:07:45;2.87;;;2.30;;
17586;SDS011;8912;52.336;17.172;2022-12-29T12:10:23;3.20;;;2.23;;
17586;SDS011;8912;52.336;17.172;2022-12-29T12:13:01;3.80;;;2.50;;
17586;SDS011;8912;52.336;17.172;2022-12-29T12:15:35;4.23;;;2.00;;
17586;SDS011;8912;52.336;17.172;2022-12-29T12:18:14;4.57;;;2.23;;
17586;SDS011;8912;52.336;17.172;2022-12-29T12:20:48;2.77;;;2.10;;
17586;SDS011;8912;52.336;17.172;2022-12-29T12:23:26;3.87;;;1.90;;
17586;SDS011;8912;52.336;17.172;2022-12-29T12:26:07;3.10;;;1.93;;
17586;SDS011;8912;52.336;17.172;2022-12-29T12:28:45;3.07;;;2.33;;
17586;SDS011;8912;52.336;17.172;2022-12-29T12:31:22;4.03;;;2.00;;
17586;SDS011;8912;52.336;17.172;2022-12-29T12:34:01;2.67;;;1.90;;
17586;SDS011;8912;52.336;17.172;2022-12-29T12:36:44;3.93;;;2.37;;
17586;SDS011;8912;52.336;17.172;2022-12-29T12:39:31;5.67;;;2.43;;
17586;SDS011;8912;52.336;17.172;2022-12-29T12:42:13;5.83;;;3.60;;
17586;SDS011;8912;52.336;17.172;2022-12-29T12:44:58;6.63;;;3.83;;
17586;SDS011;8912;52.336;17.172;2022-12-29T12:47:43;5.87;;;2.40;;
17586;SDS011;8912;52.336;17.172;2022-12-29T12:50:26;4.57;;;2.37;;
17586;SDS011;8912;52.336;17.172;2022-12-29T12:53:12;3.20;;;1.80;;
17586;SDS011;8912;52.336;17.172;2022-12-29T12:55:59;2.70;;;1.90;;
17586;SDS011;8912;52.336;17.172;2022-12-29T12:58:41;3.70;;;1.90;;
17586;SDS011;8912;52.336;17.172;2022-12-29T13:01:24;3.63;;;2.33;;
17586;SDS011;8912;52.336;17.172;2022-12-29T13:04:02;11.03;;;8.00;;
17586;SDS011;8912;52.336;17.172;2022-12-29T13:06:54;3.37;;;2.70;;
17586;SDS011;8912;52.336;17.172;2022-12-29T13:09:39;3.03;;;2.50;;
17586;SDS011;8912;52.336;17.172;2022-12-29T13:12:19;3.07;;;2.43;;
17586;SDS011;8912;52.336;17.172;2022-12-29T13:15:01;4.97;;;2.70;;
17586;SDS011;8912;52.336;17.172;2022-12-29T13:17:43;4.13;;;3.00;;
17586;SDS011;8912;52.336;17.172;2022-12-29T13:20:20;6.13;;;3.60;;
17586;SDS011;8912;52.336;17.172;2022-12-29T13:22:57;5.47;;;2.70;;
17586;SDS011;8912;52.336;17.172;2022-12-29T13:25:37;5.80;;;2.63;;
17586;SDS011;8912;52.336;17.172;2022-12-29T13:28:16;4.07;;;3.03;;
17586;SDS011;8912;52.336;17.172;2022-12-29T13:30:53;5.40;;;2.53;;
17586;SDS011;8912;52.336;17.172;2022-12-29T13:33:29;4.77;;;3.00;;
17586;SDS011;8912;52.336;17.172;2022-12-29T13:36:08;4.07;;;2.83;;
17586;SDS011;8912;52.336;17.172;2022-12-29T13:38:43;4.43;;;2.70;;
17586;SDS011;8912;52.336;17.172;2022-12-29T13:41:18;4.47;;;2.60;;
17586;SDS011;8912;52.336;17.172;2022-12-29T13:43:55;5.57;;;3.00;;
17586;SDS011;8912;52.336;17.172;2022-12-29T13:46:27;4.43;;;3.60;;
17586;SDS011;8912;52.336;17.172;2022-12-29T13:49:01;6.37;;;3.63;;
17586;SDS011;8912;52.336;17.172;2022-12-29T13:51:35;3.67;;;3.27;;
17586;SDS011;8912;52.336;17.172;2022-12-29T13:54:14;8.17;;;5.17;;
17586;SDS011;8912;52.336;17.172;2022-12-29T13:56:55;3.87;;;2.93;;
17586;SDS011;8912;52.336;17.172;2022-12-29T13:59:33;3.83;;;3.07;;
17586;SDS011;8912;52.336;17.172;2022-12-29T14:02:17;7.40;;;5.47;;
17586;SDS011;8912;52.336;17.172;2022-12-29T14:04:58;11.37;;;8.17;;
17586;SDS011;8912;52.336;17.172;2022-12-29T14:07:28;7.40;;;5.23;;
17586;SDS011;8912;52.336;17.172;2022-12-29T14:09:58;8.27;;;4.90;;
17586;SDS011;8912;52.336;17.172;2022-12-29T14:12:28;6.37;;;4.53;;
17586;SDS011;8912;52.336;17.172;2022-12-29T14:15:05;7.70;;;6.07;;
17586;SDS011;8912;52.336;17.172;2022-12-29T14:17:43;6.83;;;4.90;;
17586;SDS011;8912;52.336;17.172;2022-12-29T14:20:18;5.17;;;4.40;;
17586;SDS011;8912;52.336;17.172;2022-12-29T14:22:58;6.80;;;4.87;;
17586;SDS011;8912;52.336;17.172;2022-12-29T14:28:34;7.43;;;4.40;;
17586;SDS011;8912;52.336;17.172;2022-12-29T14:31:04;6.77;;;3.90;;
17586;SDS011;8912;52.336;17.172;2022-12-29T14:36:57;5.27;;;3.43;;
17586;SDS011;8912;52.336;17.172;2022-12-29T14:39:33;5.87;;;3.67;;
17586;SDS011;8912;52.336;17.172;2022-12-29T14:42:05;6.00;;;3.97;;
17586;SDS011;8912;52.336;17.172;2022-12-29T14:44:45;4.07;;;2.10;;
17586;SDS011;8912;52.336;17.172;2022-12-29T14:47:18;2.47;;;2.10;;
17586;SDS011;8912;52.336;17.172;2022-12-29T14:49:50;3.60;;;2.30;;
17586;SDS011;8912;52.336;17.172;2022-12-29T14:52:22;10.60;;;5.83;;
17586;SDS011;8912;52.336;17.172;2022-12-29T14:54:54;18.30;;;12.30;;
17586;SDS011;8912;52.336;17.172;2022-12-29T14:57:28;26.33;;;16.43;;
17586;SDS011;8912;52.336;17.172;2022-12-29T15:00:06;17.20;;;10.10;;
17586;SDS011;8912;52.336;17.172;2022-12-29T15:02:44;8.83;;;6.27;;
17586;SDS011;8912;52.336;17.172;2022-12-29T15:05:29;17.67;;;10.50;;
17586;SDS011;8912;52.336;17.172;2022-12-29T15:08:04;23.83;;;12.63;;
17586;SDS011;8912;52.336;17.172;2022-12-29T15:10:37;14.17;;;9.03;;
17586;SDS011;8912;52.336;17.172;2022-12-29T15:13:15;30.83;;;17.50;;
17586;SDS011;8912;52.336;17.172;2022-12-29T15:15:46;14.93;;;10.27;;
17586;SDS011;8912;52.336;17.172;2022-12-29T15:18:21;36.80;;;16.27;;
17586;SDS011;8912;52.336;17.172;2022-12-29T15:20:53;36.93;;;18.93;;
17586;SDS011;8912;52.336;17.172;2022-12-29T15:23:25;28.03;;;12.93;;
17586;SDS011;8912;52.336;17.172;2022-12-29T15:25:56;27.60;;;13.77;;
17586;SDS011;8912;52.336;17.172;2022-12-29T15:28:27;16.60;;;8.90;;
17586;SDS011;8912;52.336;17.172;2022-12-29T15:31:05;27.63;;;18.33;;
17586;SDS011;8912;52.336;17.172;2022-12-29T15:33:39;36.30;;;23.03;;
17586;SDS011;8912;52.336;17.172;2022-12-29T15:36:10;29.23;;;19.23;;
17586;SDS011;8912;52.336;17.172;2022-12-29T15:38:43;26.37;;;17.33;;
17586;SDS011;8912;52.336;17.172;2022-12-29T15:41:19;18.30;;;11.83;;
17586;SDS011;8912;52.336;17.172;2022-12-29T15:44:00;17.43;;;11.13;;
17586;SDS011;8912;52.336;17.172;2022-12-29T15:46:37;12.97;;;9.03;;
17586;SDS011;8912;52.336;17.172;2022-12-29T15:49:07;13.37;;;8.13;;